sensor_id;sensor_type;location;lat;lon;timestamp;pressure;altitude;pressure_sealevel;temperature;humidity
78317;BME280;67572;50.930;18.276;2023-08-01T00:02:05;98175.25;;;18.92;59.44
78317;BME280;67572;50.930;18.276;2023-08-01T00:05:09;98171.63;;;18.85;59.80
78317;BME280;67572;50.930;18.276;2023-08-01T00:08:14;98170.00;;;18.76;60.27
78317;BME280;67572;50.930;18.276;2023-08-01T00:11:18;98175.44;;;18.91;59.93
78317;BME280;67572;50.930;18.276;2023-08-01T00:14:21;98169.38;;;18.89;60.07
78317;BME280;67572;50.930;18.276;2023-08-01T00:17:27;98156.53;;;18.99;59.90
78317;BME280;67572;50.930;18.276;2023-08-01T00:20:31;98163.03;;;18.81;60.06
78317;BME280;67572;50.930;18.276;2023-08-01T00:23:34;98155.88;;;18.74;60.55
78317;BME280;67572;50.930;18.276;2023-08-01T00:26:38;98145.97;;;18.89;60.01
78317;BME280;67572;50.930;18.276;2023-08-01T00:29:42;98142.63;;;18.87;60.04
78317;BME280;67572;50.930;18.276;2023-08-01T00:32:47;98139.91;;;18.72;60.44
78317;BME280;67572;50.930;18.276;2023-08-01T00:35:53;98129.53;;;18.84;60.04
78317;BME280;67572;50.930;18.276;2023-08-01T00:38:57;98129.16;;;18.87;59.70
78317;BME280;67572;50.930;18.276;2023-08-01T00:42:01;98128.91;;;18.82;60.20
78317;BME280;67572;50.930;18.276;2023-08-01T00:45:06;98121.69;;;18.97;59.62
78317;BME280;67572;50.930;18.276;2023-08-01T00:48:11;98109.59;;;18.93;60.21
78317;BME280;67572;50.930;18.276;2023-08-01T00:51:15;98104.69;;;18.97;59.29
78317;BME280;67572;50.930;18.276;2023-08-01T00:54:20;98102.63;;;18.84;59.83
78317;BME280;67572;50.930;18.276;2023-08-01T00:57:23;98104.75;;;19.03;58.73
78317;BME280;67572;50.930;18.276;2023-08-01T01:00:27;98095.38;;;18.99;59.56
78317;BME280;67572;50.930;18.276;2023-08-01T01:03:34;98084.63;;;18.99;59.17
78317;BME280;67572;50.930;18.276;2023-08-01T01:06:41;98076.16;;;19.02;59.05
78317;BME280;67572;50.930;18.276;2023-08-01T01:09:48;98079.78;;;18.95;59.25
78317;BME280;67572;50.930;18.276;2023-08-01T01:12:53;98065.00;;;18.91;59.21
78317;BME280;67572;50.930;18.276;2023-08-01T01:15:57;98057.84;;;18.83;59.58
78317;BME280;67572;50.930;18.276;2023-08-01T01:19:06;98062.47;;;18.89;59.49
78317;BME280;67572;50.930;18.276;2023-08-01T01:22:11;98050.31;;;18.93;59.31
78317;BME280;67572;50.930;18.276;2023-08-01T01:25:18;98052.81;;;18.80;59.84
78317;BME280;67572;50.930;18.276;2023-08-01T01:28:23;98046.25;;;18.82;59.13
78317;BME280;67572;50.930;18.276;2023-08-01T01:31:28;98036.66;;;18.80;59.17
78317;BME280;67572;50.930;18.276;2023-08-01T01:34:31;98025.31;;;18.70;59.20
78317;BME280;67572;50.930;18.276;2023-08-01T01:37:37;98032.25;;;18.64;59.98
78317;BME280;67572;50.930;18.276;2023-08-01T01:40:41;98017.38;;;18.53;60.02
78317;BME280;67572;50.930;18.276;2023-08-01T01:46:25;98005.66;;;18.46;60.14
78317;BME280;67572;50.930;18.276;2023-08-01T01:49:29;98005.66;;;18.46;60.15
78317;BME280;67572;50.930;18.276;2023-08-01T01:52:33;97998.13;;;18.42;60.15
78317;BME280;67572;50.930;18.276;2023-08-01T01:55:39;97995.78;;;18.24;60.94
78317;BME280;67572;50.930;18.276;2023-08-01T01:58:43;97992.50;;;18.14;60.94
78317;BME280;67572;50.930;18.276;2023-08-01T02:01:48;97986.38;;;18.20;61.04
78317;BME280;67572;50.930;18.276;2023-08-01T02:04:51;97979.47;;;18.02;61.41
78317;BME280;67572;50.930;18.276;2023-08-01T02:07:56;97980.59;;;18.31;60.41
78317;BME280;67572;50.930;18.276;2023-08-01T02:11:01;97984.63;;;18.27;60.85
78317;BME280;67572;50.930;18.276;2023-08-01T02:14:04;97984.03;;;18.02;61.35
78317;BME280;67572;50.930;18.276;2023-08-01T02:17:10;97973.34;;;17.94;61.42
78317;BME280;67572;50.930;18.276;2023-08-01T02:20:13;97971.03;;;17.83;61.91
78317;BME280;67572;50.930;18.276;2023-08-01T02:23:17;97962.88;;;17.99;61.51
78317;BME280;67572;50.930;18.276;2023-08-01T02:26:20;97964.38;;;17.79;61.81
78317;BME280;67572;50.930;18.276;2023-08-01T02:29:43;97957.59;;;17.83;61.74
78317;BME280;67572;50.930;18.276;2023-08-01T02:32:49;97946.25;;;17.72;62.01
78317;BME280;67572;50.930;18.276;2023-08-01T02:35:53;97945.88;;;17.84;61.59
78317;BME280;67572;50.930;18.276;2023-08-01T02:38:56;97940.50;;;17.98;61.06
78317;BME280;67572;50.930;18.276;2023-08-01T02:42:00;97936.59;;;17.86;61.84
78317;BME280;67572;50.930;18.276;2023-08-01T02:45:05;97936.00;;;17.68;61.94
78317;BME280;67572;50.930;18.276;2023-08-01T02:48:10;97930.69;;;17.60;62.38
78317;BME280;67572;50.930;18.276;2023-08-01T02:51:14;97924.94;;;17.71;62.19
78317;BME280;67572;50.930;18.276;2023-08-01T02:54:18;97931.47;;;17.77;61.86
78317;BME280;67572;50.930;18.276;2023-08-01T02:57:21;97932.34;;;17.69;62.30
78317;BME280;67572;50.930;18.276;2023-08-01T03:00:25;97929.53;;;17.62;62.19
78317;BME280;67572;50.930;18.276;2023-08-01T03:03:30;97927.94;;;17.76;61.97
78317;BME280;67572;50.930;18.276;2023-08-01T03:06:34;97927.22;;;17.51;62.81
78317;BME280;67572;50.930;18.276;2023-08-01T03:09:38;97919.22;;;17.66;62.61
78317;BME280;67572;50.930;18.276;2023-08-01T03:12:41;97916.09;;;17.62;62.65
78317;BME280;67572;50.930;18.276;2023-08-01T03:15:46;97917.50;;;17.50;63.12
78317;BME280;67572;50.930;18.276;2023-08-01T03:18:51;97917.56;;;17.65;63.02
78317;BME280;67572;50.930;18.276;2023-08-01T03:21:55;97909.88;;;17.62;63.09
78317;BME280;67572;50.930;18.276;2023-08-01T03:24:59;97913.91;;;17.58;63.58
78317;BME280;67572;50.930;18.276;2023-08-01T03:28:04;97902.63;;;17.62;62.95
78317;BME280;67572;50.930;18.276;2023-08-01T03:31:08;97904.72;;;17.75;63.01
78317;BME280;67572;50.930;18.276;2023-08-01T03:34:15;97908.91;;;17.55;63.46
78317;BME280;67572;50.930;18.276;2023-08-01T03:37:19;97904.19;;;17.80;62.45
78317;BME280;67572;50.930;18.276;2023-08-01T03:40:23;97906.81;;;17.65;63.26
78317;BME280;67572;50.930;18.276;2023-08-01T03:43:27;97905.75;;;17.74;62.73
78317;BME280;67572;50.930;18.276;2023-08-01T03:46:30;97906.34;;;17.61;63.44
78317;BME280;67572;50.930;18.276;2023-08-01T03:49:36;97897.72;;;17.66;63.28
78317;BME280;67572;50.930;18.276;2023-08-01T03:52:40;97899.06;;;17.70;63.33
78317;BME280;67572;50.930;18.276;2023-08-01T03:55:44;97892.66;;;17.48;63.58
78317;BME280;67572;50.930;18.276;2023-08-01T03:58:47;97889.78;;;17.50;63.68
78317;BME280;67572;50.930;18.276;2023-08-01T04:01:51;97891.59;;;17.57;63.69
78317;BME280;67572;50.930;18.276;2023-08-01T04:04:56;97888.53;;;17.60;63.47
78317;BME280;67572;50.930;18.276;2023-08-01T04:08:00;97884.59;;;17.48;63.98
78317;BME280;67572;50.930;18.276;2023-08-01T04:12:34;97886.69;;;17.61;63.22
78317;BME280;67572;50.930;18.276;2023-08-01T04:15:37;97889.19;;;17.62;63.60
78317;BME280;67572;50.930;18.276;2023-08-01T04:18:41;97893.63;;;17.78;63.21
78317;BME280;67572;50.930;18.276;2023-08-01T04:21:44;97891.00;;;17.70;63.30
78317;BME280;67572;50.930;18.276;2023-08-01T04:24:48;97891.28;;;17.75;63.31
78317;BME280;67572;50.930;18.276;2023-08-01T04:27:53;97887.06;;;17.81;63.37
78317;BME280;67572;50.930;18.276;2023-08-01T04:30:57;97890.41;;;17.97;63.22
78317;BME280;67572;50.930;18.276;2023-08-01T04:34:00;97893.75;;;17.85;63.24
78317;BME280;67572;50.930;18.276;2023-08-01T04:37:04;97894.47;;;17.79;64.03
78317;BME280;67572;50.930;18.276;2023-08-01T04:40:09;97894.94;;;17.82;63.73
78317;BME280;67572;50.930;18.276;2023-08-01T04:43:13;97898.09;;;17.86;63.72
78317;BME280;67572;50.930;18.276;2023-08-01T04:46:17;97889.84;;;17.87;63.46
78317;BME280;67572;50.930;18.276;2023-08-01T04:49:21;97881.59;;;17.89;64.17
78317;BME280;67572;50.930;18.276;2023-08-01T04:52:24;97891.00;;;17.93;63.96
78317;BME280;67572;50.930;18.276;2023-08-01T04:55:28;97903.22;;;17.95;64.01
78317;BME280;67572;50.930;18.276;2023-08-01T04:58:32;97892.09;;;17.98;64.05
78317;BME280;67572;50.930;18.276;2023-08-01T05:01:36;97900.03;;;18.15;63.50
78317;BME280;67572;50.930;18.276;2023-08-01T05:04:39;97892.50;;;18.10;63.61
78317;BME280;67572;50.930;18.276;2023-08-01T05:07:43;97885.25;;;18.11;63.76
78317;BME280;67572;50.930;18.276;2023-08-01T05:10:46;97884.44;;;18.25;63.74
78317;BME280;67572;50.930;18.276;2023-08-01T05:13:51;97885.47;;;18.24;63.39
78317;BME280;67572;50.930;18.276;2023-08-01T05:16:55;97883.72;;;18.31;63.12
78317;BME280;67572;50.930;18.276;2023-08-01T05:19:59;97890.28;;;18.43;63.10
78317;BME280;67572;50.930;18.276;2023-08-01T05:23:03;97886.88;;;18.49;63.22
78317;BME280;67572;50.930;18.276;2023-08-01T05:26:07;97880.84;;;18.62;62.66
78317;BME280;67572;50.930;18.276;2023-08-01T05:29:11;97882.91;;;18.75;62.84
78317;BME280;67572;50.930;18.276;2023-08-01T05:32:15;97883.81;;;18.97;62.03
78317;BME280;67572;50.930;18.276;2023-08-01T05:35:19;97884.38;;;18.77;63.03
78317;BME280;67572;50.930;18.276;2023-08-01T05:38:23;97881.66;;;18.92;62.84
78317;BME280;67572;50.930;18.276;2023-08-01T05:41:26;97888.00;;;18.84;63.51
78317;BME280;67572;50.930;18.276;2023-08-01T05:44:31;97880.19;;;18.90;63.61
78317;BME280;67572;50.930;18.276;2023-08-01T05:47:35;97869.28;;;19.12;64.12
78317;BME280;67572;50.930;18.276;2023-08-01T05:50:39;97867.22;;;19.15;63.88
78317;BME280;67572;50.930;18.276;2023-08-01T05:53:42;97865.25;;;18.72;65.02
78317;BME280;67572;50.930;18.276;2023-08-01T05:56:46;97861.28;;;18.68;64.29
78317;BME280;67572;50.930;18.276;2023-08-01T05:59:51;97859.19;;;18.85;64.66
78317;BME280;67572;50.930;18.276;2023-08-01T06:02:55;97856.13;;;18.88;65.14
78317;BME280;67572;50.930;18.276;2023-08-01T06:05:59;97861.63;;;18.80;65.75
78317;BME280;67572;50.930;18.276;2023-08-01T06:09:03;97864.56;;;19.00;65.50
78317;BME280;67572;50.930;18.276;2023-08-01T06:12:07;97863.59;;;19.07;66.30
78317;BME280;67572;50.930;18.276;2023-08-01T06:15:12;97858.94;;;18.80;66.69
78317;BME280;67572;50.930;18.276;2023-08-01T06:18:16;97856.81;;;18.75;67.43
78317;BME280;67572;50.930;18.276;2023-08-01T06:21:19;97861.53;;;18.73;67.52
78317;BME280;67572;50.930;18.276;2023-08-01T06:24:23;97869.44;;;18.75;67.76
78317;BME280;67572;50.930;18.276;2023-08-01T06:27:27;97858.09;;;18.79;68.28
78317;BME280;67572;50.930;18.276;2023-08-01T06:30:32;97857.19;;;19.08;66.76
78317;BME280;67572;50.930;18.276;2023-08-01T06:33:35;97857.13;;;19.02;67.58
78317;BME280;67572;50.930;18.276;2023-08-01T06:36:39;97853.03;;;19.06;67.82
78317;BME280;67572;50.930;18.276;2023-08-01T06:39:43;97856.03;;;18.81;69.16
78317;BME280;67572;50.930;18.276;2023-08-01T06:42:46;97859.31;;;18.77;69.34
78317;BME280;67572;50.930;18.276;2023-08-01T06:45:52;97861.63;;;18.50;70.56
78317;BME280;67572;50.930;18.276;2023-08-01T06:48:56;97850.69;;;18.37;70.71
78317;BME280;67572;50.930;18.276;2023-08-01T06:51:59;97845.47;;;18.50;71.59
78317;BME280;67572;50.930;18.276;2023-08-01T06:55:06;97843.53;;;18.59;71.62
78317;BME280;67572;50.930;18.276;2023-08-01T06:58:10;97833.94;;;18.56;72.01
78317;BME280;67572;50.930;18.276;2023-08-01T07:01:15;97833.94;;;18.56;72.02
78317;BME280;67572;50.930;18.276;2023-08-01T07:04:18;97834.59;;;18.73;71.88
78317;BME280;67572;50.930;18.276;2023-08-01T07:07:22;97837.56;;;18.78;72.38
78317;BME280;67572;50.930;18.276;2023-08-01T07:10:26;97839.88;;;18.81;72.50
78317;BME280;67572;50.930;18.276;2023-08-01T07:13:30;97844.25;;;18.82;73.17
78317;BME280;67572;50.930;18.276;2023-08-01T07:16:35;97838.78;;;18.61;73.62
78317;BME280;67572;50.930;18.276;2023-08-01T07:19:38;97838.22;;;18.51;75.58
78317;BME280;67572;50.930;18.276;2023-08-01T07:22:42;97829.22;;;18.58;75.24
78317;BME280;67572;50.930;18.276;2023-08-01T07:25:46;97824.03;;;18.57;75.64
78317;BME280;67572;50.930;18.276;2023-08-01T07:28:49;97824.59;;;18.82;75.32
78317;BME280;67572;50.930;18.276;2023-08-01T07:31:54;97826.78;;;18.64;77.14
78317;BME280;67572;50.930;18.276;2023-08-01T07:34:58;97814.38;;;18.48;78.24
78317;BME280;67572;50.930;18.276;2023-08-01T07:38:02;97824.19;;;18.85;77.73
78317;BME280;67572;50.930;18.276;2023-08-01T07:41:06;97823.28;;;18.78;77.96
78317;BME280;67572;50.930;18.276;2023-08-01T07:44:10;97815.97;;;18.42;79.33
78317;BME280;67572;50.930;18.276;2023-08-01T07:47:15;97819.47;;;18.72;79.75
78317;BME280;67572;50.930;18.276;2023-08-01T07:50:19;97815.63;;;18.81;77.60
78317;BME280;67572;50.930;18.276;2023-08-01T07:53:22;97819.38;;;18.36;79.38
78317;BME280;67572;50.930;18.276;2023-08-01T07:56:26;97819.22;;;18.52;79.35
78317;BME280;67572;50.930;18.276;2023-08-01T07:59:30;97813.28;;;18.27;80.68
78317;BME280;67572;50.930;18.276;2023-08-01T08:02:35;97809.56;;;18.43;80.34
78317;BME280;67572;50.930;18.276;2023-08-01T08:05:38;97810.44;;;18.14;81.42
78317;BME280;67572;50.930;18.276;2023-08-01T08:08:42;97801.53;;;18.14;81.86
78317;BME280;67572;50.930;18.276;2023-08-01T08:11:45;97796.78;;;18.16;81.75
78317;BME280;67572;50.930;18.276;2023-08-01T08:14:49;97792.59;;;18.13;82.93
78317;BME280;67572;50.930;18.276;2023-08-01T08:17:54;97790.91;;;18.27;82.04
78317;BME280;67572;50.930;18.276;2023-08-01T08:20:57;97791.19;;;18.32;81.52
78317;BME280;67572;50.930;18.276;2023-08-01T08:24:01;97782.31;;;18.32;82.83
78317;BME280;67572;50.930;18.276;2023-08-01T08:27:05;97785.34;;;18.28;83.03
78317;BME280;67572;50.930;18.276;2023-08-01T08:30:09;97784.06;;;18.39;82.74
78317;BME280;67572;50.930;18.276;2023-08-01T08:33:19;97777.03;;;18.23;82.95
78317;BME280;67572;50.930;18.276;2023-08-01T08:36:23;97780.25;;;18.19;83.87
78317;BME280;67572;50.930;18.276;2023-08-01T08:39:27;97781.25;;;18.47;83.24
78317;BME280;67572;50.930;18.276;2023-08-01T08:42:33;97776.00;;;18.24;82.81
78317;BME280;67572;50.930;18.276;2023-08-01T08:45:40;97774.97;;;18.25;82.23
78317;BME280;67572;50.930;18.276;2023-08-01T08:48:46;97774.97;;;18.25;83.40
78317;BME280;67572;50.930;18.276;2023-08-01T08:51:50;97763.34;;;18.40;82.86
78317;BME280;67572;50.930;18.276;2023-08-01T08:54:53;97775.47;;;18.50;82.14
78317;BME280;67572;50.930;18.276;2023-08-01T08:57:58;97761.88;;;18.37;82.40
78317;BME280;67572;50.930;18.276;2023-08-01T09:01:04;97763.44;;;18.46;82.79
78317;BME280;67572;50.930;18.276;2023-08-01T09:04:10;97751.56;;;18.41;81.87
78317;BME280;67572;50.930;18.276;2023-08-01T09:07:15;97747.66;;;18.43;81.79
78317;BME280;67572;50.930;18.276;2023-08-01T09:10:22;97748.19;;;18.68;80.90
78317;BME280;67572;50.930;18.276;2023-08-01T09:13:25;97745.78;;;18.95;79.54
78317;BME280;67572;50.930;18.276;2023-08-01T09:16:29;97736.66;;;18.96;81.15
78317;BME280;67572;50.930;18.276;2023-08-01T09:19:35;97741.22;;;19.17;80.31
78317;BME280;67572;50.930;18.276;2023-08-01T09:22:43;97735.94;;;19.30;79.27
78317;BME280;67572;50.930;18.276;2023-08-01T09:25:47;97738.91;;;19.35;79.87
78317;BME280;67572;50.930;18.276;2023-08-01T09:28:58;97744.81;;;19.02;79.57
78317;BME280;67572;50.930;18.276;2023-08-01T09:32:11;97739.94;;;19.12;80.03
78317;BME280;67572;50.930;18.276;2023-08-01T09:35:16;97733.13;;;19.17;79.31
78317;BME280;67572;50.930;18.276;2023-08-01T09:38:20;97723.38;;;19.16;79.99
78317;BME280;67572;50.930;18.276;2023-08-01T09:41:23;97720.81;;;19.07;78.23
78317;BME280;67572;50.930;18.276;2023-08-01T09:44:29;97711.59;;;18.95;78.34
78317;BME280;67572;50.930;18.276;2023-08-01T09:47:36;97720.63;;;18.88;79.18
78317;BME280;67572;50.930;18.276;2023-08-01T09:50:42;97717.81;;;18.96;79.51
78317;BME280;67572;50.930;18.276;2023-08-01T09:53:47;97716.72;;;18.69;79.98
78317;BME280;67572;50.930;18.276;2023-08-01T09:56:52;97709.09;;;18.72;80.55
78317;BME280;67572;50.930;18.276;2023-08-01T10:00:08;97707.69;;;18.98;81.27
78317;BME280;67572;50.930;18.276;2023-08-01T10:03:15;97692.50;;;18.90;80.59
78317;BME280;67572;50.930;18.276;2023-08-01T10:06:22;97703.06;;;18.92;81.37
78317;BME280;67572;50.930;18.276;2023-08-01T10:09:27;97701.66;;;18.96;81.79
78317;BME280;67572;50.930;18.276;2023-08-01T10:12:31;97704.09;;;18.69;82.44
78317;BME280;67572;50.930;18.276;2023-08-01T10:15:36;97700.50;;;18.83;82.87
78317;BME280;67572;50.930;18.276;2023-08-01T10:18:40;97698.06;;;18.67;83.62
78317;BME280;67572;50.930;18.276;2023-08-01T10:21:44;97698.06;;;18.89;83.38
78317;BME280;67572;50.930;18.276;2023-08-01T10:24:51;97706.19;;;18.74;84.61
78317;BME280;67572;50.930;18.276;2023-08-01T10:28:00;97698.13;;;18.74;84.22
78317;BME280;67572;50.930;18.276;2023-08-01T10:31:09;97692.19;;;18.64;84.15
78317;BME280;67572;50.930;18.276;2023-08-01T10:34:13;97690.31;;;18.79;83.55
78317;BME280;67572;50.930;18.276;2023-08-01T10:37:17;97691.06;;;18.73;84.17
78317;BME280;67572;50.930;18.276;2023-08-01T10:40:20;97678.84;;;18.70;83.71
78317;BME280;67572;50.930;18.276;2023-08-01T10:43:25;97686.09;;;18.91;83.40
78317;BME280;67572;50.930;18.276;2023-08-01T10:46:29;97687.75;;;18.92;83.31
78317;BME280;67572;50.930;18.276;2023-08-01T10:49:47;97680.00;;;18.82;83.85
78317;BME280;67572;50.930;18.276;2023-08-01T10:53:03;97681.59;;;18.77;83.99
78317;BME280;67572;50.930;18.276;2023-08-01T10:56:08;97681.09;;;18.67;84.25
78317;BME280;67572;50.930;18.276;2023-08-01T10:59:18;97673.66;;;18.54;84.41
78317;BME280;67572;50.930;18.276;2023-08-01T11:02:25;97666.91;;;18.79;84.32
78317;BME280;67572;50.930;18.276;2023-08-01T11:05:29;97662.22;;;18.88;84.88
78317;BME280;67572;50.930;18.276;2023-08-01T11:08:36;97653.91;;;18.83;84.02
78317;BME280;67572;50.930;18.276;2023-08-01T11:11:40;97647.22;;;18.79;85.00
78317;BME280;67572;50.930;18.276;2023-08-01T11:14:43;97653.09;;;18.89;84.64
78317;BME280;67572;50.930;18.276;2023-08-01T11:17:49;97654.97;;;18.89;84.03
78317;BME280;67572;50.930;18.276;2023-08-01T11:20:53;97651.31;;;18.96;84.08
78317;BME280;67572;50.930;18.276;2023-08-01T11:25:43;97648.19;;;18.93;84.52
78317;BME280;67572;50.930;18.276;2023-08-01T11:28:47;97652.72;;;18.92;84.74
78317;BME280;67572;50.930;18.276;2023-08-01T11:31:55;97649.53;;;18.82;84.85
78317;BME280;67572;50.930;18.276;2023-08-01T11:34:58;97649.97;;;18.85;84.78
78317;BME280;67572;50.930;18.276;2023-08-01T11:38:02;97652.66;;;18.85;84.72
78317;BME280;67572;50.930;18.276;2023-08-01T11:41:08;97656.00;;;18.88;84.86
78317;BME280;67572;50.930;18.276;2023-08-01T11:44:11;97640.56;;;18.75;85.66
78317;BME280;67572;50.930;18.276;2023-08-01T11:47:16;97648.31;;;18.84;85.59
78317;BME280;67572;50.930;18.276;2023-08-01T11:50:26;97641.31;;;18.90;85.96
78317;BME280;67572;50.930;18.276;2023-08-01T11:53:29;97647.09;;;18.87;85.21
78317;BME280;67572;50.930;18.276;2023-08-01T11:56:44;97646.78;;;18.75;86.60
78317;BME280;67572;50.930;18.276;2023-08-01T11:59:48;97647.69;;;18.82;85.96
78317;BME280;67572;50.930;18.276;2023-08-01T12:03:03;97642.31;;;18.89;85.88
78317;BME280;67572;50.930;18.276;2023-08-01T12:06:07;97638.69;;;18.97;86.08
78317;BME280;67572;50.930;18.276;2023-08-01T12:09:11;97638.56;;;18.83;86.68
78317;BME280;67572;50.930;18.276;2023-08-01T12:12:16;97618.69;;;18.84;86.37
78317;BME280;67572;50.930;18.276;2023-08-01T12:15:20;97619.88;;;18.75;86.37
78317;BME280;67572;50.930;18.276;2023-08-01T12:18:27;97620.84;;;18.68;86.62
78317;BME280;67572;50.930;18.276;2023-08-01T12:21:50;97615.78;;;18.65;86.61
78317;BME280;67572;50.930;18.276;2023-08-01T12:24:54;97618.25;;;18.60;86.34
78317;BME280;67572;50.930;18.276;2023-08-01T12:27:59;97614.94;;;18.64;86.60
78317;BME280;67572;50.930;18.276;2023-08-01T12:31:03;97622.97;;;18.57;86.86
78317;BME280;67572;50.930;18.276;2023-08-01T12:34:06;97613.22;;;18.35;86.98
78317;BME280;67572;50.930;18.276;2023-08-01T12:37:10;97619.97;;;18.46;86.97
78317;BME280;67572;50.930;18.276;2023-08-01T12:40:13;97606.59;;;18.52;86.25
78317;BME280;67572;50.930;18.276;2023-08-01T12:43:18;97598.94;;;18.56;85.75
78317;BME280;67572;50.930;18.276;2023-08-01T12:46:24;97598.69;;;18.72;85.60
78317;BME280;67572;50.930;18.276;2023-08-01T12:49:28;97593.06;;;18.46;85.57
78317;BME280;67572;50.930;18.276;2023-08-01T12:52:32;97595.03;;;18.37;86.07
78317;BME280;67572;50.930;18.276;2023-08-01T12:56:15;97592.47;;;18.50;86.33
78317;BME280;67572;50.930;18.276;2023-08-01T12:59:19;97598.09;;;18.55;85.24
78317;BME280;67572;50.930;18.276;2023-08-01T13:02:22;97579.75;;;18.87;85.17
78317;BME280;67572;50.930;18.276;2023-08-01T13:05:26;97580.84;;;18.93;84.30
78317;BME280;67572;50.930;18.276;2023-08-01T13:08:29;97583.59;;;18.99;83.44
78317;BME280;67572;50.930;18.276;2023-08-01T13:11:34;97579.72;;;19.08;83.48
78317;BME280;67572;50.930;18.276;2023-08-01T13:14:38;97579.19;;;18.92;83.41
78317;BME280;67572;50.930;18.276;2023-08-01T13:17:46;97579.97;;;19.13;82.48
78317;BME280;67572;50.930;18.276;2023-08-01T13:20:50;97567.91;;;19.09;82.39
78317;BME280;67572;50.930;18.276;2023-08-01T13:23:53;97576.28;;;19.21;82.43
78317;BME280;67572;50.930;18.276;2023-08-01T13:26:57;97575.63;;;19.19;82.56
78317;BME280;67572;50.930;18.276;2023-08-01T13:30:01;97558.78;;;19.10;82.10
78317;BME280;67572;50.930;18.276;2023-08-01T13:33:06;97552.94;;;19.35;81.53
78317;BME280;67572;50.930;18.276;2023-08-01T13:36:09;97539.69;;;19.40;80.85
78317;BME280;67572;50.930;18.276;2023-08-01T13:39:12;97542.16;;;19.35;81.11
78317;BME280;67572;50.930;18.276;2023-08-01T13:42:16;97547.38;;;19.43;81.20
78317;BME280;67572;50.930;18.276;2023-08-01T13:45:20;97550.03;;;19.02;81.18
78317;BME280;67572;50.930;18.276;2023-08-01T13:48:25;97548.31;;;19.22;81.11
78317;BME280;67572;50.930;18.276;2023-08-01T13:51:32;97561.72;;;19.16;81.38
78317;BME280;67572;50.930;18.276;2023-08-01T13:54:36;97560.13;;;19.21;81.32
78317;BME280;67572;50.930;18.276;2023-08-01T13:57:40;97565.25;;;19.16;80.45
78317;BME280;67572;50.930;18.276;2023-08-01T14:00:43;97554.69;;;19.15;80.75
78317;BME280;67572;50.930;18.276;2023-08-01T14:03:49;97556.81;;;19.26;80.56
78317;BME280;67572;50.930;18.276;2023-08-01T14:06:53;97553.97;;;19.40;79.85
78317;BME280;67572;50.930;18.276;2023-08-01T14:09:57;97560.63;;;19.38;78.93
78317;BME280;67572;50.930;18.276;2023-08-01T14:13:00;97562.81;;;19.21;79.58
78317;BME280;67572;50.930;18.276;2023-08-01T14:16:04;97562.22;;;19.32;79.19
78317;BME280;67572;50.930;18.276;2023-08-01T14:19:09;97566.78;;;19.32;78.77
78317;BME280;67572;50.930;18.276;2023-08-01T14:24:53;97576.31;;;19.28;78.60
78317;BME280;67572;50.930;18.276;2023-08-01T14:27:57;97581.72;;;19.62;78.12
78317;BME280;67572;50.930;18.276;2023-08-01T14:31:01;97572.22;;;19.80;77.23
78317;BME280;67572;50.930;18.276;2023-08-01T14:34:04;97582.97;;;19.66;77.00
78317;BME280;67572;50.930;18.276;2023-08-01T14:37:08;97583.19;;;19.65;76.95
78317;BME280;67572;50.930;18.276;2023-08-01T14:40:13;97595.94;;;19.56;77.42
78317;BME280;67572;50.930;18.276;2023-08-01T14:43:19;97578.19;;;19.62;77.29
78317;BME280;67572;50.930;18.276;2023-08-01T14:46:23;97580.09;;;19.75;76.44
78317;BME280;67572;50.930;18.276;2023-08-01T14:49:27;97573.69;;;19.76;76.22
78317;BME280;67572;50.930;18.276;2023-08-01T14:52:31;97582.88;;;19.88;75.45
78317;BME280;67572;50.930;18.276;2023-08-01T14:55:36;97578.88;;;19.77;75.70
78317;BME280;67572;50.930;18.276;2023-08-01T14:58:43;97584.09;;;19.92;75.60
78317;BME280;67572;50.930;18.276;2023-08-01T15:01:46;97586.13;;;19.77;74.88
78317;BME280;67572;50.930;18.276;2023-08-01T15:04:51;97584.56;;;19.95;74.95
78317;BME280;67572;50.930;18.276;2023-08-01T15:07:55;97586.75;;;19.79;74.95
78317;BME280;67572;50.930;18.276;2023-08-01T15:11:04;97586.31;;;19.68;75.30
78317;BME280;67572;50.930;18.276;2023-08-01T15:14:08;97591.88;;;19.60;75.23
78317;BME280;67572;50.930;18.276;2023-08-01T15:17:11;97586.97;;;19.77;74.66
78317;BME280;67572;50.930;18.276;2023-08-01T15:20:15;97595.00;;;19.71;74.30
78317;BME280;67572;50.930;18.276;2023-08-01T15:23:19;97599.78;;;19.68;74.44
78317;BME280;67572;50.930;18.276;2023-08-01T15:26:24;97607.13;;;19.53;74.49
78317;BME280;67572;50.930;18.276;2023-08-01T15:29:27;97605.06;;;19.55;74.55
78317;BME280;67572;50.930;18.276;2023-08-01T15:33:10;97600.91;;;19.53;74.39
78317;BME280;67572;50.930;18.276;2023-08-01T15:36:14;97603.88;;;19.58;73.69
78317;BME280;67572;50.930;18.276;2023-08-01T15:39:18;97608.56;;;19.49;73.99
78317;BME280;67572;50.930;18.276;2023-08-01T15:42:21;97617.09;;;19.53;73.92
78317;BME280;67572;50.930;18.276;2023-08-01T15:45:25;97626.41;;;19.50;73.34
78317;BME280;67572;50.930;18.276;2023-08-01T15:48:30;97624.22;;;19.60;73.19
78317;BME280;67572;50.930;18.276;2023-08-01T15:51:34;97618.38;;;19.57;73.00
78317;BME280;67572;50.930;18.276;2023-08-01T15:54:38;97603.47;;;19.61;72.68
78317;BME280;67572;50.930;18.276;2023-08-01T15:57:42;97607.13;;;19.53;72.65
78317;BME280;67572;50.930;18.276;2023-08-01T16:00:46;97595.81;;;19.58;72.21
78317;BME280;67572;50.930;18.276;2023-08-01T16:03:51;97598.66;;;19.56;71.87
78317;BME280;67572;50.930;18.276;2023-08-01T16:06:55;97601.34;;;19.50;72.31
78317;BME280;67572;50.930;18.276;2023-08-01T16:10:02;97612.28;;;19.48;72.51
78317;BME280;67572;50.930;18.276;2023-08-01T16:13:06;97612.94;;;19.50;72.37
78317;BME280;67572;50.930;18.276;2023-08-01T16:16:10;97615.31;;;19.32;72.92